Latest Weather Observations for Fawkner Beacon

IDV60801

Issued at 3:52 pm EDT Tuesday 15 October 2019 (issued every 10 minutes, with the page automatically refreshed every 10 minutes)

About weather observations | Map of weather stations | Latest weather observations for VIC | Other Formats
Station Details ID: 086376 Name: FAWKNER BEACON Lat: -37.95 Lon: 144.93 Height: 17.0 m
Data from the previous 72 hours. | See also: Recent months at Fawkner Beacon
Date/Time
EDT
Temp
°C
App
Temp
°C
Dew
Point
°C
Rel
Hum
%
Delta-T
°C
Wind Press
QNH
hPa
Press
MSL
hPa
Rain since
9am
mm
Dir  Spd
km/h
Gust
km/h
Spd
kts
Gust
kts
15/03:30pm - - - - - SSE 20 22 11 12 - - -
15/03:00pm - - - - - S 17 22 9 12 - - -
15/02:30pm - - - - - SSW 13 15 7 8 - - -
15/02:00pm - - - - - SSW 9 13 5 7 - - -
15/01:30pm - - - - - S 9 13 5 7 - - -
15/01:00pm - - - - - SSW 9 13 5 7 - - -
15/12:30pm - - - - - S 13 17 7 9 - - -
15/12:00pm - - - - - S 15 20 8 11 - - -
15/11:30am - - - - - S 19 22 10 12 - - -
15/11:00am - - - - - S 17 22 9 12 - - -
15/10:30am - - - - - SSE 17 20 9 11 - - -
15/10:00am - - - - - S 17 22 9 12 - - -
15/09:30am - - - - - SSE 17 22 9 12 - - -
15/09:00am - - - - - SSE 15 17 8 9 - - -
15/08:30am - - - - - SSE 13 15 7 8 - - -
15/08:00am - - - - - SE 13 15 7 8 - - -
15/07:30am - - - - - SSE 15 17 8 9 - - -
15/07:00am - - - - - S 19 24 10 13 - - -
15/06:30am - - - - - SSE 19 22 10 12 - - -
15/06:00am - - - - - S 19 22 10 12 - - -
15/05:30am - - - - - S 17 20 9 11 - - -
15/05:00am - - - - - S 17 22 9 12 - - -
15/04:30am - - - - - S 19 24 10 13 - - -
15/04:00am - - - - - S 17 22 9 12 - - -
15/03:30am - - - - - S 20 24 11 13 - - -
15/03:00am - - - - - S 20 24 11 13 - - -
15/02:30am - - - - - S 22 26 12 14 - - -
15/02:00am - - - - - S 20 22 11 12 - - -
15/01:30am - - - - - S 20 24 11 13 - - -
15/01:00am - - - - - S 20 22 11 12 - - -
15/12:30am - - - - - S 20 24 11 13 - - -
15/12:00am - - - - - SSE 13 17 7 9 - - -
 
Date/Time
EDT
Temp
°C
App
Temp
°C
Dew
Point
°C
Rel
Hum
%
Delta-T
°C
Wind Press
QNH
hPa
Press
MSL
hPa
Rain since
9am
mm
Dir  Spd
km/h
Gust
km/h
Spd
kts
Gust
kts
14/11:30pm - - - - - SSE 15 17 8 9 - - -
14/11:00pm - - - - - SSE 17 20 9 11 - - -
14/10:30pm - - - - - S 17 22 9 12 - - -
14/10:00pm - - - - - SSE 17 22 9 12 - - -
14/09:30pm - - - - - SSE 24 28 13 15 - - -
14/09:00pm - - - - - S 24 30 13 16 - - -
14/08:30pm - - - - - S 24 28 13 15 - - -
14/08:00pm - - - - - S 30 33 16 18 - - -
14/07:30pm - - - - - S 32 39 17 21 - - -
14/07:00pm - - - - - S 35 43 19 23 - - -
14/06:30pm - - - - - S 33 41 18 22 - - -
14/06:00pm - - - - - S 35 44 19 24 - - -
14/05:30pm - - - - - SSW 43 48 23 26 - - -
14/05:00pm - - - - - S 33 41 18 22 - - -
14/04:30pm - - - - - S 37 43 20 23 - - -
14/04:00pm - - - - - SSW 33 39 18 21 - - -
14/03:30pm - - - - - S 32 35 17 19 - - -
14/03:00pm - - - - - SSW 28 41 15 22 - - -
14/02:30pm - - - - - N 22 30 12 16 - - -
14/02:00pm - - - - - N 20 28 11 15 - - -
14/01:30pm - - - - - N 24 26 13 14 - - -
14/01:00pm - - - - - N 15 20 8 11 - - -
14/12:30pm - - - - - N 22 26 12 14 - - -
14/12:00pm - - - - - N 19 22 10 12 - - -
14/11:30am - - - - - N 24 28 13 15 - - -
14/11:00am - - - - - N 22 26 12 14 - - -
14/10:30am - - - - - NNW 28 32 15 17 - - -
14/10:28am - - - - - NNW 26 32 14 17 - - -
14/10:00am - - - - - N 4 11 2 6 - - -
14/09:30am - - - - - N 11 15 6 8 - - -
14/09:00am - - - - - NNW 9 13 5 7 - - -
14/08:30am - - - - - NNW 13 15 7 8 - - -
14/08:00am - - - - - N 15 17 8 9 - - -
14/07:30am - - - - - N 13 15 7 8 - - -
14/07:00am - - - - - NNE 17 20 9 11 - - -
14/06:30am - - - - - NNE 11 13 6 7 - - -
14/06:00am - - - - - N 11 13 6 7 - - -
14/05:30am - - - - - NNW 13 17 7 9 - - -
14/05:00am - - - - - N 11 13 6 7 - - -
14/04:30am - - - - - WNW 11 15 6 8 - - -
14/04:00am - - - - - NNW 9 13 5 7 - - -
14/03:30am - - - - - NNW 11 13 6 7 - - -
14/03:00am - - - - - N 22 26 12 14 - - -
14/02:30am - - - - - N 9 13 5 7 - - -
14/02:00am - - - - - NW 6 7 3 4 - - -
14/01:30am - - - - - WNW 9 11 5 6 - - -
14/01:00am - - - - - ENE 4 7 2 4 - - -
14/12:30am - - - - - E 9 11 5 6 - - -
14/12:00am - - - - - ENE 9 11 5 6 - - -
 
Date/Time
EDT
Temp
°C
App
Temp
°C
Dew
Point
°C
Rel
Hum
%
Delta-T
°C
Wind Press
QNH
hPa
Press
MSL
hPa
Rain since
9am
mm
Dir  Spd
km/h
Gust
km/h
Spd
kts
Gust
kts
13/11:30pm - - - - - E 11 13 6 7 - - -
13/11:00pm - - - - - ENE 13 17 7 9 - - -
13/10:30pm - - - - - ENE 17 20 9 11 - - -
13/10:00pm - - - - - ENE 17 20 9 11 - - -
13/09:30pm - - - - - NE 20 24 11 13 - - -
13/09:00pm - - - - - NE 20 26 11 14 - - -
13/08:30pm - - - - - NNE 24 28 13 15 - - -
13/08:00pm - - - - - NNE 24 26 13 14 - - -
13/07:30pm - - - - - N 28 32 15 17 - - -
13/07:00pm - - - - - N 30 33 16 18 - - -
13/06:30pm - - - - - N 26 30 14 16 - - -
13/06:00pm - - - - - N 30 35 16 19 - - -
13/05:30pm - - - - - N 28 32 15 17 - - -
13/05:00pm - - - - - N 26 32 14 17 - - -
13/04:30pm - - - - - N 30 35 16 19 - - -
13/04:00pm - - - - - N 30 33 16 18 - - -
13/03:30pm - - - - - N 28 32 15 17 - - -
13/03:00pm - - - - - N 20 28 11 15 - - -
13/02:30pm - - - - - N 30 33 16 18 - - -
13/02:00pm - - - - - N 28 33 15 18 - - -
13/01:30pm - - - - - N 26 32 14 17 - - -
13/01:00pm - - - - - N 28 32 15 17 - - -
13/12:30pm - - - - - N 32 39 17 21 - - -
13/12:00pm - - - - - N 30 35 16 19 - - -
13/11:30am - - - - - N 28 33 15 18 - - -
13/11:00am - - - - - N 26 33 14 18 - - -
13/10:30am - - - - - N 33 43 18 23 - - -
13/10:00am - - - - - N 28 46 15 25 - - -
13/09:57am - - - - - N 20 46 11 25 - - -
13/09:30am - - - - - NNE 15 22 8 12 - - -
13/09:00am - - - - - NNE 13 17 7 9 - - -
13/08:30am - - - - - NE 11 15 6 8 - - -
13/08:00am - - - - - NE 15 20 8 11 - - -
13/07:30am - - - - - NE 15 20 8 11 - - -
13/07:00am - - - - - NNE 11 15 6 8 - - -
13/06:30am - - - - - NNE 11 13 6 7 - - -
13/06:00am - - - - - NNE 11 15 6 8 - - -
13/05:30am - - - - - NNE 11 13 6 7 - - -
13/05:00am - - - - - NE 13 15 7 8 - - -
13/04:30am - - - - - NE 15 17 8 9 - - -
13/04:00am - - - - - NE 17 20 9 11 - - -
13/03:30am - - - - - ENE 17 22 9 12 - - -
13/03:00am - - - - - ENE 15 20 8 11 - - -
13/02:30am - - - - - ENE 9 13 5 7 - - -
13/02:00am - - - - - ENE 9 11 5 6 - - -
13/01:30am - - - - - NE 11 15 6 8 - - -
13/01:00am - - - - - E 13 17 7 9 - - -
13/12:30am - - - - - ENE 15 17 8 9 - - -
13/12:00am - - - - - E 19 22 10 12 - - -
 
Date/Time
EDT
Temp
°C
App
Temp
°C
Dew
Point
°C
Rel
Hum
%
Delta-T
°C
Wind Press
QNH
hPa
Press
MSL
hPa
Rain since
9am
mm
Dir  Spd
km/h
Gust
km/h
Spd
kts
Gust
kts
12/11:30pm - - - - - E 26 30 14 16 - - -
12/11:00pm - - - - - E 28 32 15 17 - - -
12/10:30pm - - - - - E 26 30 14 16 - - -
12/10:00pm - - - - - E 32 35 17 19 - - -
12/09:30pm - - - - - E 33 39 18 21 - - -
12/09:00pm - - - - - E 32 35 17 19 - - -
12/08:30pm - - - - - ESE 32 35 17 19 - - -
12/08:00pm - - - - - ESE 32 35 17 19 - - -
12/07:30pm - - - - - ESE 33 43 18 23 - - -
12/07:00pm - - - - - ESE 32 35 17 19 - - -
12/06:30pm - - - - - ESE 32 33 17 18 - - -
12/06:00pm - - - - - ESE 32 35 17 19 - - -
12/05:30pm - - - - - ESE 28 32 15 17 - - -
12/05:00pm - - - - - ESE 30 33 16 18 - - -
12/04:30pm - - - - - SE 28 30 15 16 - - -
12/04:00pm - - - - - SE 24 26 13 14 - - -

Other formats

Comma delimited format used in spreadsheet applications
http://www.bom.gov.au/fwo/IDV60801/IDV60801.95872.axf

JavaScript Object Notation format (JSON) in row-major order
http://www.bom.gov.au/fwo/IDV60801/IDV60801.95872.json

Data quality

Most of these data are generated automatically and are frequently updated. Quality checks on data are not normally performed. It is possible for incorrect values to appear. Refer to information at About Latest Weather Observations and please check the disclaimer before using these data.